createdAt,value
2018-07-13T00:02:13.012Z,11.80
2018-07-13T00:04:41.285Z,10.70
2018-07-13T00:07:09.697Z,9.47
2018-07-13T00:09:38.006Z,13.53
2018-07-13T00:12:06.332Z,13.07
2018-07-13T00:14:34.587Z,13.17
2018-07-13T00:17:02.962Z,11.20
2018-07-13T00:19:31.199Z,12.20
2018-07-13T00:21:59.428Z,9.90
2018-07-13T00:24:27.770Z,12.73
2018-07-13T00:26:56.034Z,11.43
2018-07-13T00:29:24.325Z,10.63
2018-07-13T00:31:52.312Z,11.60
2018-07-13T00:34:20.573Z,8.70
2018-07-13T00:36:48.850Z,10.50
2018-07-13T00:39:17.174Z,12.30
2018-07-13T00:41:45.556Z,10.57
2018-07-13T00:44:14.289Z,10.67
2018-07-13T00:46:42.500Z,8.43
2018-07-13T00:49:10.730Z,16.87
2018-07-13T00:51:39.001Z,9.20
2018-07-13T00:54:07.289Z,12.23
2018-07-13T00:56:35.611Z,10.73
2018-07-13T00:59:03.986Z,8.80
2018-07-13T01:01:32.334Z,10.20
2018-07-13T01:04:00.677Z,10.60
2018-07-13T01:06:28.943Z,9.60
2018-07-13T01:08:57.188Z,11.00
2018-07-13T01:11:25.522Z,12.93
2018-07-13T01:13:53.742Z,10.13
2018-07-13T01:16:21.793Z,14.03
2018-07-13T01:18:50.054Z,12.27
2018-07-13T01:21:18.294Z,11.67
2018-07-13T01:23:46.537Z,8.80
2018-07-13T01:26:14.794Z,12.60
2018-07-13T01:28:43.157Z,10.67
2018-07-13T01:31:11.499Z,8.33
2018-07-13T01:33:39.746Z,16.23
2018-07-13T01:36:08.046Z,9.60
2018-07-13T01:38:36.399Z,14.67
2018-07-13T01:41:04.737Z,15.00
2018-07-13T01:43:33.033Z,14.77
2018-07-13T01:46:01.427Z,10.07
2018-07-13T01:48:29.681Z,9.60
2018-07-13T01:50:57.938Z,12.47
2018-07-13T01:53:25.947Z,10.00
2018-07-13T01:55:54.215Z,12.83
2018-07-13T01:58:22.550Z,12.20
2018-07-13T02:00:50.945Z,14.40
2018-07-13T02:03:19.257Z,14.50
2018-07-13T02:05:47.849Z,10.13
2018-07-13T02:08:16.093Z,16.63
2018-07-13T02:10:44.370Z,15.63
2018-07-13T02:13:12.639Z,14.50
2018-07-13T02:15:40.941Z,13.30
2018-07-13T02:18:09.252Z,10.87
2018-07-13T02:20:37.513Z,14.43
2018-07-13T02:23:05.845Z,14.07
2018-07-13T02:25:34.106Z,18.27
2018-07-13T02:28:02.492Z,14.73
2018-07-13T02:30:30.831Z,14.53
2018-07-13T02:32:59.210Z,12.50
2018-07-13T02:35:27.467Z,11.30
2018-07-13T02:37:55.733Z,14.23
2018-07-13T02:40:23.974Z,13.23
2018-07-13T02:42:52.285Z,15.90
2018-07-13T02:45:20.570Z,11.80
2018-07-13T02:47:48.869Z,16.33
2018-07-13T02:50:17.141Z,15.50
2018-07-13T02:52:45.420Z,18.77
2018-07-13T02:55:13.695Z,13.27
2018-07-13T02:57:41.924Z,14.20
2018-07-13T03:00:10.170Z,16.37
2018-07-13T03:02:38.490Z,15.80
2018-07-13T03:05:07.054Z,14.63
2018-07-13T03:07:35.287Z,14.50
2018-07-13T03:10:03.282Z,19.00
2018-07-13T03:12:31.510Z,17.23
2018-07-13T03:14:59.810Z,13.17
2018-07-13T03:17:28.099Z,15.70
2018-07-13T03:19:56.339Z,16.10
2018-07-13T03:22:24.653Z,19.63
2018-07-13T03:24:52.894Z,17.37
2018-07-13T03:27:20.949Z,13.50
2018-07-13T03:29:49.245Z,14.30
2018-07-13T03:32:17.542Z,15.67
2018-07-13T03:34:45.798Z,16.33
2018-07-13T03:37:14.102Z,18.50
2018-07-13T03:39:42.446Z,15.17
2018-07-13T03:42:10.934Z,16.93
2018-07-13T03:44:39.202Z,13.00
2018-07-13T03:47:07.477Z,14.50
2018-07-13T03:49:35.475Z,17.00
2018-07-13T03:52:03.813Z,13.07
2018-07-13T03:54:32.101Z,15.60
2018-07-13T03:57:00.366Z,21.60
2018-07-13T03:59:28.400Z,17.37
2018-07-13T04:01:56.639Z,14.60
2018-07-13T04:04:24.997Z,19.67
2018-07-13T04:06:53.354Z,17.60
2018-07-13T04:09:21.643Z,16.47
2018-07-13T04:11:49.885Z,18.00
2018-07-13T04:14:18.163Z,19.00
2018-07-13T04:16:46.568Z,13.27
2018-07-13T04:19:14.883Z,11.53
2018-07-13T04:21:42.877Z,10.27
2018-07-13T04:24:11.334Z,11.93
2018-07-13T04:26:40.146Z,10.50
2018-07-13T04:29:08.521Z,15.00
2018-07-13T04:31:36.787Z,13.20
2018-07-13T04:34:05.117Z,13.17
2018-07-13T04:36:33.282Z,9.87
2018-07-13T04:39:01.308Z,10.90
2018-07-13T04:41:29.421Z,10.37
2018-07-13T04:43:57.514Z,11.87
2018-07-13T04:46:25.756Z,11.10
2018-07-13T04:48:54.010Z,9.83
2018-07-13T04:51:22.299Z,12.00
2018-07-13T04:53:50.546Z,11.07
2018-07-13T04:56:18.838Z,12.17
2018-07-13T04:58:48.168Z,12.40
2018-07-13T05:01:17.058Z,11.13
2018-07-13T05:03:45.654Z,17.53
2018-07-13T05:06:13.906Z,10.30
2018-07-13T05:08:42.310Z,12.37
2018-07-13T05:11:10.619Z,14.30
2018-07-13T05:13:38.905Z,13.50
2018-07-13T05:16:07.165Z,12.20
2018-07-13T05:18:35.517Z,12.93
2018-07-13T05:21:03.829Z,10.77
2018-07-13T05:23:32.150Z,16.40
2018-07-13T05:26:00.549Z,9.60
2018-07-13T05:28:28.834Z,10.97
2018-07-13T05:30:57.131Z,17.67
2018-07-13T05:33:25.586Z,9.43
2018-07-13T05:35:53.578Z,12.00
2018-07-13T05:38:22.028Z,9.00
2018-07-13T05:40:50.231Z,12.03
2018-07-13T05:43:18.293Z,15.87
2018-07-13T05:45:46.706Z,12.10
2018-07-13T05:48:15.295Z,15.40
2018-07-13T05:50:43.602Z,12.30
2018-07-13T05:53:11.886Z,16.73
2018-07-13T05:55:40.329Z,12.17
2018-07-13T05:58:08.642Z,10.97
2018-07-13T06:00:36.981Z,15.20
2018-07-13T06:03:05.242Z,13.13
2018-07-13T06:05:33.258Z,10.20
2018-07-13T06:08:01.631Z,9.87
2018-07-13T06:10:29.914Z,9.40
2018-07-13T06:12:58.156Z,9.60
2018-07-13T06:15:26.189Z,10.63
2018-07-13T06:17:54.539Z,9.43
2018-07-13T06:20:22.797Z,12.17
2018-07-13T06:22:51.039Z,10.73
2018-07-13T06:25:19.278Z,9.20
2018-07-13T06:27:47.538Z,11.37
2018-07-13T06:30:15.789Z,11.40
2018-07-13T06:32:44.090Z,9.33
2018-07-13T06:35:12.307Z,11.00
2018-07-13T06:37:40.565Z,9.70
2018-07-13T06:40:08.933Z,12.00
2018-07-13T06:42:37.169Z,13.10
2018-07-13T06:45:05.434Z,11.77
2018-07-13T06:47:33.758Z,11.37
2018-07-13T06:50:02.012Z,8.30
2018-07-13T06:52:30.262Z,8.40
2018-07-13T06:54:58.309Z,9.43
2018-07-13T06:57:37.971Z,11.97
2018-07-13T07:01:10.025Z,13.33
2018-07-13T07:04:41.673Z,7.13
2018-07-13T07:07:15.324Z,7.83
2018-07-13T07:09:45.792Z,11.93
2018-07-13T07:12:19.845Z,9.43
2018-07-13T07:14:48.110Z,13.87
2018-07-13T07:17:16.095Z,8.97
2018-07-13T07:19:44.379Z,11.30
2018-07-13T07:22:12.725Z,11.63
2018-07-13T07:24:41.217Z,9.73
2018-07-13T07:27:09.530Z,13.10
2018-07-13T07:29:37.869Z,15.40
2018-07-13T07:32:05.867Z,11.00
2018-07-13T07:34:34.100Z,12.93
2018-07-13T07:37:02.741Z,7.20
2018-07-13T07:39:30.996Z,11.07
2018-07-13T07:41:59.226Z,9.20
2018-07-13T07:44:27.205Z,9.57
2018-07-13T07:46:55.445Z,9.30
2018-07-13T07:49:23.723Z,8.43
2018-07-13T07:51:52.027Z,10.00
2018-07-13T07:54:20.322Z,12.33
2018-07-13T07:56:48.601Z,7.60
2018-07-13T07:59:16.650Z,8.90
2018-07-13T08:01:44.970Z,8.60
2018-07-13T08:04:13.286Z,9.43
2018-07-13T08:06:41.735Z,11.60
2018-07-13T08:09:09.780Z,9.97
2018-07-13T08:11:38.133Z,8.80
2018-07-13T08:14:07.088Z,10.13
2018-07-13T08:16:35.009Z,9.77
2018-07-13T08:19:03.327Z,10.83
2018-07-13T08:21:31.578Z,9.90
2018-07-13T08:23:59.809Z,10.90
2018-07-13T08:26:28.213Z,6.90
2018-07-13T08:28:56.495Z,7.57
2018-07-13T08:31:24.757Z,8.30
2018-07-13T08:33:53.058Z,7.70
2018-07-13T08:36:21.281Z,12.23
2018-07-13T08:38:49.626Z,8.23
2018-07-13T08:41:17.927Z,10.80
2018-07-13T08:43:46.149Z,7.03
2018-07-13T08:46:14.434Z,5.93
2018-07-13T08:48:42.695Z,7.37
2018-07-13T08:51:11.006Z,7.70
2018-07-13T08:53:39.191Z,7.37
2018-07-13T08:56:07.520Z,4.83
2018-07-13T08:58:35.757Z,6.23
2018-07-13T09:01:04.112Z,7.47
2018-07-13T09:03:32.375Z,6.80
2018-07-13T09:06:00.631Z,7.07
2018-07-13T09:08:28.951Z,10.03
2018-07-13T09:10:57.256Z,6.83
2018-07-13T09:13:25.470Z,6.30
2018-07-13T09:15:54.117Z,8.60
2018-07-13T09:18:22.437Z,6.87
2018-07-13T09:20:50.405Z,8.50
2018-07-13T09:23:18.648Z,6.27
2018-07-13T09:25:46.934Z,9.10
2018-07-13T09:28:15.262Z,8.67
2018-07-13T09:30:43.527Z,8.47
2018-07-13T09:33:11.777Z,6.63
2018-07-13T09:35:40.045Z,7.93
2018-07-13T09:38:08.375Z,7.17
2018-07-13T09:40:36.645Z,6.93
2018-07-13T09:43:04.910Z,11.87
2018-07-13T09:45:33.305Z,6.93
2018-07-13T09:48:01.537Z,6.97
2018-07-13T09:50:29.895Z,10.33
2018-07-13T09:52:58.211Z,6.57
2018-07-13T09:55:26.454Z,7.53
2018-07-13T09:57:54.710Z,11.43
2018-07-13T10:00:26.509Z,7.67
2018-07-13T10:02:54.795Z,7.50
2018-07-13T10:05:22.844Z,7.10
2018-07-13T10:07:51.098Z,8.10
2018-07-13T10:10:19.433Z,7.87
2018-07-13T10:12:47.722Z,11.60
2018-07-13T10:15:15.985Z,8.53
2018-07-13T10:17:44.290Z,9.37
2018-07-13T10:20:12.599Z,6.80
2018-07-13T10:22:40.844Z,6.97
2018-07-13T10:25:09.090Z,7.03
2018-07-13T10:27:38.137Z,6.37
2018-07-13T10:30:09.280Z,9.60
2018-07-13T10:32:37.546Z,8.43
2018-07-13T10:35:07.579Z,7.63
2018-07-13T10:37:35.917Z,8.03
2018-07-13T10:40:04.330Z,7.60
2018-07-13T10:42:32.597Z,6.70
2018-07-13T10:45:00.955Z,8.60
2018-07-13T10:47:28.946Z,7.50
2018-07-13T10:49:57.199Z,9.43
2018-07-13T10:52:25.486Z,12.90
2018-07-13T10:54:53.713Z,7.90
2018-07-13T10:57:22.050Z,9.87
2018-07-13T10:59:50.293Z,7.83
2018-07-13T11:02:18.661Z,7.90
2018-07-13T11:04:46.990Z,8.37
2018-07-13T11:07:15.316Z,9.40
2018-07-13T11:09:43.639Z,10.27
2018-07-13T11:12:11.955Z,7.07
2018-07-13T11:14:40.226Z,7.57
2018-07-13T11:17:08.561Z,10.57
2018-07-13T11:19:36.883Z,7.90
2018-07-13T11:22:05.177Z,8.17
2018-07-13T11:24:33.533Z,8.53
2018-07-13T11:27:01.893Z,11.23
2018-07-13T11:29:30.198Z,10.30
2018-07-13T11:31:58.735Z,7.07
2018-07-13T11:34:27.214Z,7.50
2018-07-13T11:36:55.530Z,15.30
2018-07-13T11:39:23.789Z,10.77
2018-07-13T11:41:51.773Z,9.60
2018-07-13T11:44:19.773Z,11.30
2018-07-13T11:46:48.059Z,8.40
2018-07-13T11:49:16.710Z,9.10
2018-07-13T11:51:45.150Z,9.83
2018-07-13T11:54:13.473Z,8.33
2018-07-13T11:56:41.718Z,10.30
2018-07-13T11:59:09.934Z,8.50
2018-07-13T12:01:38.246Z,9.97
2018-07-13T12:04:06.574Z,11.40
2018-07-13T12:06:34.923Z,8.23
2018-07-13T12:09:03.174Z,9.07
2018-07-13T12:11:31.438Z,9.70
2018-07-13T12:13:59.717Z,10.43
2018-07-13T12:16:28.064Z,13.17
2018-07-13T12:18:56.272Z,9.50
2018-07-13T12:21:24.501Z,10.37
2018-07-13T12:23:52.538Z,8.40
2018-07-13T12:26:20.763Z,9.63
2018-07-13T12:28:48.723Z,10.40
2018-07-13T12:31:17.189Z,12.40
2018-07-13T12:33:45.566Z,8.90
2018-07-13T12:36:13.810Z,8.43
2018-07-13T12:38:42.255Z,9.57
2018-07-13T12:41:10.586Z,8.33
2018-07-13T12:43:38.829Z,7.43
2018-07-13T12:46:07.216Z,9.07
2018-07-13T12:48:35.473Z,10.30
2018-07-13T12:51:03.985Z,10.07
2018-07-13T12:53:32.215Z,8.37
2018-07-13T12:56:00.468Z,9.20
2018-07-13T12:58:28.702Z,8.50
2018-07-13T13:00:57.011Z,7.53
2018-07-13T13:03:25.314Z,8.00
2018-07-13T13:05:53.563Z,8.60
2018-07-13T13:08:21.847Z,9.97
2018-07-13T13:10:50.205Z,6.47
2018-07-13T13:13:18.211Z,7.20
2018-07-13T13:15:46.577Z,8.63
2018-07-13T13:18:14.870Z,8.20
2018-07-13T13:20:42.861Z,11.20
2018-07-13T13:23:11.100Z,7.27
2018-07-13T13:25:39.494Z,6.20
2018-07-13T13:28:07.938Z,8.40
2018-07-13T13:30:36.374Z,7.37
2018-07-13T13:33:04.989Z,7.10
2018-07-13T13:35:33.281Z,7.80
2018-07-13T13:38:01.491Z,6.47
2018-07-13T13:40:29.798Z,10.73
2018-07-13T13:42:57.778Z,6.37
2018-07-13T13:45:26.022Z,7.20
2018-07-13T13:47:54.257Z,7.00
2018-07-13T13:50:22.558Z,5.50
2018-07-13T13:52:50.813Z,5.13
2018-07-13T13:55:19.184Z,8.20
2018-07-13T13:57:47.485Z,5.83
2018-07-13T14:00:15.762Z,5.60
2018-07-13T14:02:44.118Z,5.87
2018-07-13T14:05:12.372Z,9.23
2018-07-13T14:07:40.600Z,5.67
2018-07-13T14:10:08.894Z,11.87
2018-07-13T14:12:37.217Z,6.70
2018-07-13T14:15:05.927Z,7.20
2018-07-13T14:17:34.169Z,5.30
2018-07-13T14:20:02.418Z,6.77
2018-07-13T14:22:30.767Z,5.87
2018-07-13T14:24:58.999Z,5.40
2018-07-13T14:27:27.272Z,5.83
2018-07-13T14:29:55.494Z,5.70
2018-07-13T14:32:23.754Z,6.90
2018-07-13T14:34:52.130Z,7.87
2018-07-13T14:37:20.534Z,5.60
2018-07-13T14:39:48.888Z,7.30
2018-07-13T14:42:17.176Z,5.70
2018-07-13T14:44:45.485Z,6.00
2018-07-13T14:47:13.968Z,7.10
2018-07-13T14:49:41.836Z,6.93
2018-07-13T14:52:10.169Z,10.83
2018-07-13T14:54:38.445Z,6.13
2018-07-13T14:57:06.690Z,5.30
2018-07-13T14:59:35.051Z,6.23
2018-07-13T15:02:03.384Z,6.80
2018-07-13T15:04:31.686Z,5.17
2018-07-13T15:07:00.111Z,6.57
2018-07-13T15:09:28.144Z,7.50
2018-07-13T15:11:56.412Z,5.30
2018-07-13T15:14:24.773Z,12.40
2018-07-13T15:16:52.766Z,5.70
2018-07-13T15:19:21.102Z,6.47
2018-07-13T15:21:49.536Z,9.40
2018-07-13T15:24:18.962Z,6.20
2018-07-13T15:26:46.917Z,4.50
2018-07-13T15:29:15.185Z,7.20
2018-07-13T15:31:43.639Z,4.30
2018-07-13T15:34:11.944Z,5.50
2018-07-13T15:36:40.362Z,6.73
2018-07-13T15:39:08.728Z,8.50
2018-07-13T15:41:37.055Z,5.17
2018-07-13T15:44:05.039Z,5.00
2018-07-13T15:46:33.020Z,6.20
2018-07-13T15:49:01.342Z,7.77
2018-07-13T15:51:29.584Z,6.63
2018-07-13T15:53:57.838Z,8.50
2018-07-13T15:56:26.067Z,6.43
2018-07-13T15:58:54.382Z,8.50
2018-07-13T16:01:22.578Z,8.47
2018-07-13T16:03:50.847Z,6.00
2018-07-13T16:06:19.131Z,5.63
2018-07-13T16:08:47.337Z,6.50
2018-07-13T16:11:15.606Z,5.53
2018-07-13T16:13:43.840Z,7.80
2018-07-13T16:16:12.171Z,5.23
2018-07-13T16:18:40.377Z,6.10
2018-07-13T16:21:08.639Z,6.83
2018-07-13T16:23:36.926Z,7.70
2018-07-13T16:26:05.270Z,7.37
2018-07-13T16:28:33.658Z,9.00
2018-07-13T16:31:02.229Z,5.70
2018-07-13T16:33:30.446Z,9.80
2018-07-13T16:35:58.702Z,7.30
2018-07-13T16:38:26.831Z,7.33
2018-07-13T16:40:55.075Z,6.70
2018-07-13T16:43:23.440Z,6.80
2018-07-13T16:45:51.794Z,6.80
2018-07-13T16:48:19.790Z,6.13
2018-07-13T16:50:48.090Z,6.37
2018-07-13T16:53:16.620Z,7.70
2018-07-13T16:55:44.926Z,6.43
2018-07-13T16:58:13.205Z,7.13
2018-07-13T17:00:41.460Z,6.83
2018-07-13T17:03:09.719Z,12.33
2018-07-13T17:05:37.931Z,8.20
2018-07-13T17:08:06.155Z,6.53
2018-07-13T17:10:34.121Z,7.23
2018-07-13T17:13:02.426Z,6.10
2018-07-13T17:15:30.754Z,6.00
2018-07-13T17:17:59.025Z,6.60
2018-07-13T17:20:27.435Z,6.20
2018-07-13T17:22:55.681Z,5.87
2018-07-13T17:25:24.115Z,5.83
2018-07-13T17:27:52.409Z,6.00
2018-07-13T17:30:20.710Z,5.33
2018-07-13T17:32:48.966Z,5.23
2018-07-13T17:35:17.026Z,4.90
2018-07-13T17:37:44.943Z,5.10
2018-07-13T17:40:13.260Z,5.33
2018-07-13T17:42:41.637Z,5.00
2018-07-13T17:47:50.953Z,5.20
2018-07-13T17:50:19.271Z,4.53
2018-07-13T17:52:47.606Z,4.63
2018-07-13T17:55:15.588Z,5.10
2018-07-13T17:57:43.869Z,4.83
2018-07-13T18:00:12.142Z,5.30
2018-07-13T18:02:40.385Z,4.57
2018-07-13T18:05:08.679Z,3.90
2018-07-13T18:07:36.695Z,5.33
2018-07-13T18:10:04.764Z,4.30
2018-07-13T18:12:33.190Z,4.90
2018-07-13T18:15:01.459Z,4.03
2018-07-13T18:17:29.714Z,4.93
2018-07-13T18:19:58.041Z,3.90
2018-07-13T18:22:26.410Z,3.80
2018-07-13T18:24:55.142Z,3.67
2018-07-13T18:27:23.449Z,3.90
2018-07-13T18:29:51.637Z,3.83
2018-07-13T18:32:19.622Z,4.33
2018-07-13T18:34:47.904Z,3.60
2018-07-13T18:37:15.886Z,4.80
2018-07-13T18:39:43.884Z,5.77
2018-07-13T18:42:12.269Z,4.43
2018-07-13T18:44:40.630Z,4.33
2018-07-13T18:47:09.255Z,4.57
2018-07-13T18:49:37.574Z,3.87
2018-07-13T18:52:06.325Z,4.80
2018-07-13T18:54:34.627Z,4.37
2018-07-13T18:57:02.994Z,4.30
2018-07-13T18:59:31.431Z,4.63
2018-07-13T19:01:59.451Z,3.63
2018-07-13T19:04:27.740Z,8.53
2018-07-13T19:06:55.843Z,6.40
2018-07-13T19:09:23.881Z,6.30
2018-07-13T19:11:52.178Z,5.30
2018-07-13T19:14:20.470Z,5.50
2018-07-13T19:16:48.536Z,4.90
2018-07-13T19:19:16.881Z,6.00
2018-07-13T19:21:45.442Z,4.87
2018-07-13T19:24:13.769Z,4.40
2018-07-13T19:26:42.044Z,4.80
2018-07-13T19:29:10.334Z,5.03
2018-07-13T19:31:38.674Z,5.03
2018-07-13T19:34:06.679Z,5.13
2018-07-13T19:36:35.044Z,5.00
2018-07-13T19:39:03.773Z,4.80
2018-07-13T19:41:32.059Z,4.93
2018-07-13T19:44:00.355Z,5.17
2018-07-13T19:46:28.686Z,5.70
2018-07-13T19:48:56.933Z,5.63
2018-07-13T19:51:24.942Z,5.10
2018-07-13T19:53:53.187Z,6.33
2018-07-13T19:56:21.436Z,6.37
2018-07-13T19:58:49.729Z,5.80
2018-07-13T20:01:17.817Z,5.17
2018-07-13T20:03:46.126Z,5.60
2018-07-13T20:06:14.137Z,5.37
2018-07-13T20:08:42.666Z,9.90
2018-07-13T20:11:10.842Z,21.93
2018-07-13T20:13:39.187Z,16.83
2018-07-13T20:16:07.634Z,15.17
2018-07-13T20:18:35.917Z,11.50
2018-07-13T20:21:03.962Z,8.07
2018-07-13T20:23:32.204Z,8.50
2018-07-13T20:26:00.418Z,6.13
2018-07-13T20:28:28.702Z,5.77
2018-07-13T20:30:56.973Z,5.13
2018-07-13T20:33:25.320Z,6.00
2018-07-13T20:35:53.701Z,9.20
2018-07-13T20:38:21.931Z,5.37
2018-07-13T20:40:49.965Z,7.83
2018-07-13T20:43:18.330Z,5.30
2018-07-13T20:45:46.610Z,5.33
2018-07-13T20:48:14.901Z,5.90
2018-07-13T20:50:42.878Z,6.90
2018-07-13T20:53:11.198Z,5.63
2018-07-13T20:55:39.524Z,5.63
2018-07-13T20:58:08.286Z,4.27
2018-07-13T21:00:36.694Z,6.70
2018-07-13T21:03:05.053Z,4.67
2018-07-13T21:05:33.141Z,4.80
2018-07-13T21:08:01.117Z,5.03
2018-07-13T21:10:29.356Z,4.37
2018-07-13T21:12:57.609Z,8.93
2018-07-13T21:15:25.933Z,4.50
2018-07-13T21:17:54.249Z,3.97
2018-07-13T21:20:22.657Z,6.67
2018-07-13T21:22:50.838Z,4.90
2018-07-13T21:25:19.150Z,4.30
2018-07-13T21:27:47.471Z,6.27
2018-07-13T21:30:15.445Z,4.53
2018-07-13T21:32:43.745Z,4.63
2018-07-13T21:35:12.008Z,4.77
2018-07-13T21:37:40.296Z,4.40
2018-07-13T21:40:08.564Z,4.60
2018-07-13T21:42:36.906Z,4.40
2018-07-13T21:45:05.018Z,5.93
2018-07-13T21:47:33.257Z,4.43
2018-07-13T21:50:01.621Z,4.87
2018-07-13T21:52:29.849Z,4.80
2018-07-13T21:54:58.091Z,5.83
2018-07-13T21:57:26.298Z,4.93
2018-07-13T21:59:54.529Z,4.70
2018-07-13T22:02:22.901Z,5.30
2018-07-13T22:04:51.174Z,5.20
2018-07-13T22:07:19.199Z,5.60
2018-07-13T22:09:47.479Z,5.30
2018-07-13T22:12:15.750Z,4.53
2018-07-13T22:14:43.779Z,5.20
2018-07-13T22:17:12.143Z,4.60
2018-07-13T22:19:40.418Z,4.80
2018-07-13T22:22:08.957Z,5.03
2018-07-13T22:24:37.323Z,5.20
2018-07-13T22:27:05.773Z,4.70
2018-07-13T22:29:34.034Z,5.23
2018-07-13T22:32:02.286Z,5.03
2018-07-13T22:34:30.580Z,5.47
2018-07-13T22:36:58.607Z,5.73
2018-07-13T22:39:26.930Z,5.07
2018-07-13T22:41:55.202Z,6.40
2018-07-13T22:44:23.181Z,6.07
2018-07-13T22:46:51.447Z,6.17
2018-07-13T22:49:19.669Z,6.00
2018-07-13T22:51:47.915Z,7.10
2018-07-13T22:54:16.202Z,6.60
2018-07-13T22:56:44.437Z,5.33
2018-07-13T22:59:12.381Z,6.90
2018-07-13T23:01:40.615Z,6.30
2018-07-13T23:04:08.860Z,6.87
2018-07-13T23:06:37.073Z,6.17
2018-07-13T23:09:05.808Z,7.70
2018-07-13T23:11:34.069Z,7.30
2018-07-13T23:14:02.386Z,6.83
2018-07-13T23:16:30.644Z,7.50
2018-07-13T23:18:59.393Z,7.87
2018-07-13T23:21:27.387Z,7.30
2018-07-13T23:23:55.729Z,7.47
2018-07-13T23:26:24.004Z,7.87
2018-07-13T23:28:52.337Z,7.03
2018-07-13T23:31:20.618Z,7.70
2018-07-13T23:33:48.661Z,7.73
2018-07-13T23:36:16.905Z,8.10
2018-07-13T23:38:45.222Z,8.37
2018-07-13T23:41:13.489Z,8.10
2018-07-13T23:43:41.803Z,8.40
2018-07-13T23:46:10.083Z,8.60
2018-07-13T23:48:38.325Z,8.47
2018-07-13T23:51:06.544Z,7.63
2018-07-13T23:53:34.762Z,7.17
2018-07-13T23:56:03.073Z,9.20
2018-07-13T23:58:31.364Z,8.57
